sensor_id;sensor_type;location;lat;lon;timestamp;P1;durP1;ratioP1;P2;durP2;ratioP2
82618;SDS011;72286;12.138;-68.936;2023-09-30T00:00:56;5.10;;;1.40;;
82618;SDS011;72286;12.138;-68.936;2023-09-30T00:04:53;3.40;;;1.50;;
82618;SDS011;72286;12.138;-68.936;2023-09-30T00:08:12;3.70;;;1.50;;
82618;SDS011;72286;12.138;-68.936;2023-09-30T00:11:49;4.70;;;1.30;;
82618;SDS011;72286;12.138;-68.936;2023-09-30T00:15:27;3.90;;;1.60;;
82618;SDS011;72286;12.138;-68.936;2023-09-30T00:19:04;5.80;;;1.60;;
82618;SDS011;72286;12.138;-68.936;2023-09-30T00:22:43;5.00;;;1.70;;
82618;SDS011;72286;12.138;-68.936;2023-09-30T00:26:20;4.30;;;1.70;;
82618;SDS011;72286;12.138;-68.936;2023-09-30T00:29:58;5.30;;;1.50;;
82618;SDS011;72286;12.138;-68.936;2023-09-30T00:33:35;4.00;;;1.60;;
82618;SDS011;72286;12.138;-68.936;2023-09-30T00:37:14;3.20;;;1.10;;
82618;SDS011;72286;12.138;-68.936;2023-09-30T00:41:10;4.60;;;1.60;;
82618;SDS011;72286;12.138;-68.936;2023-09-30T00:44:29;3.50;;;1.40;;
82618;SDS011;72286;12.138;-68.936;2023-09-30T00:48:06;3.90;;;1.50;;
82618;SDS011;72286;12.138;-68.936;2023-09-30T00:51:46;4.40;;;1.50;;
82618;SDS011;72286;12.138;-68.936;2023-09-30T00:55:23;2.20;;;1.30;;
82618;SDS011;72286;12.138;-68.936;2023-09-30T00:59:01;4.60;;;1.30;;
82618;SDS011;72286;12.138;-68.936;2023-09-30T01:02:39;2.70;;;1.40;;
82618;SDS011;72286;12.138;-68.936;2023-09-30T01:06:20;4.10;;;1.20;;
82618;SDS011;72286;12.138;-68.936;2023-09-30T01:09:57;3.10;;;1.30;;
82618;SDS011;72286;12.138;-68.936;2023-09-30T01:13:36;3.80;;;1.00;;
82618;SDS011;72286;12.138;-68.936;2023-09-30T01:17:13;4.80;;;1.90;;
82618;SDS011;72286;12.138;-68.936;2023-09-30T01:20:52;4.10;;;1.30;;
82618;SDS011;72286;12.138;-68.936;2023-09-30T01:24:30;4.30;;;1.30;;
82618;SDS011;72286;12.138;-68.936;2023-09-30T01:28:09;4.10;;;1.30;;
82618;SDS011;72286;12.138;-68.936;2023-09-30T01:31:46;3.50;;;1.10;;
82618;SDS011;72286;12.138;-68.936;2023-09-30T01:35:44;3.90;;;1.50;;
82618;SDS011;72286;12.138;-68.936;2023-09-30T01:39:01;4.50;;;1.90;;
82618;SDS011;72286;12.138;-68.936;2023-09-30T01:42:40;3.80;;;1.30;;
82618;SDS011;72286;12.138;-68.936;2023-09-30T01:46:17;3.50;;;1.10;;
82618;SDS011;72286;12.138;-68.936;2023-09-30T01:49:55;6.10;;;1.60;;
82618;SDS011;72286;12.138;-68.936;2023-09-30T01:53:32;5.10;;;1.40;;
82618;SDS011;72286;12.138;-68.936;2023-09-30T01:57:10;3.10;;;1.90;;
82618;SDS011;72286;12.138;-68.936;2023-09-30T02:00:47;4.10;;;1.60;;
82618;SDS011;72286;12.138;-68.936;2023-09-30T02:04:26;7.00;;;2.10;;
82618;SDS011;72286;12.138;-68.936;2023-09-30T02:08:03;2.90;;;1.40;;
82618;SDS011;72286;12.138;-68.936;2023-09-30T02:11:42;4.50;;;1.60;;
82618;SDS011;72286;12.138;-68.936;2023-09-30T02:15:19;5.70;;;1.60;;
82618;SDS011;72286;12.138;-68.936;2023-09-30T02:18:57;4.80;;;1.70;;
82618;SDS011;72286;12.138;-68.936;2023-09-30T02:22:34;5.00;;;1.70;;
82618;SDS011;72286;12.138;-68.936;2023-09-30T02:26:16;4.40;;;1.80;;
82618;SDS011;72286;12.138;-68.936;2023-09-30T02:29:53;5.50;;;1.80;;
82618;SDS011;72286;12.138;-68.936;2023-09-30T02:33:31;5.20;;;1.80;;
82618;SDS011;72286;12.138;-68.936;2023-09-30T02:37:08;5.70;;;2.20;;
82618;SDS011;72286;12.138;-68.936;2023-09-30T02:40:47;6.10;;;1.70;;
82618;SDS011;72286;12.138;-68.936;2023-09-30T02:44:25;3.40;;;2.20;;
82618;SDS011;72286;12.138;-68.936;2023-09-30T02:48:04;5.70;;;2.50;;
82618;SDS011;72286;12.138;-68.936;2023-09-30T02:51:42;4.90;;;2.20;;
82618;SDS011;72286;12.138;-68.936;2023-09-30T02:55:21;5.20;;;2.10;;
82618;SDS011;72286;12.138;-68.936;2023-09-30T02:58:58;5.90;;;2.10;;
82618;SDS011;72286;12.138;-68.936;2023-09-30T03:02:37;4.10;;;2.30;;
82618;SDS011;72286;12.138;-68.936;2023-09-30T03:06:14;6.90;;;2.20;;
82618;SDS011;72286;12.138;-68.936;2023-09-30T03:09:52;6.50;;;2.50;;
82618;SDS011;72286;12.138;-68.936;2023-09-30T03:13:30;5.00;;;2.50;;
82618;SDS011;72286;12.138;-68.936;2023-09-30T03:17:09;8.90;;;2.80;;
82618;SDS011;72286;12.138;-68.936;2023-09-30T03:20:48;5.90;;;3.20;;
82618;SDS011;72286;12.138;-68.936;2023-09-30T03:24:27;8.50;;;3.30;;
82618;SDS011;72286;12.138;-68.936;2023-09-30T03:28:04;6.00;;;3.10;;
82618;SDS011;72286;12.138;-68.936;2023-09-30T03:31:43;7.70;;;3.60;;
82618;SDS011;72286;12.138;-68.936;2023-09-30T03:35:20;7.40;;;3.40;;
82618;SDS011;72286;12.138;-68.936;2023-09-30T03:38:58;6.00;;;3.30;;
82618;SDS011;72286;12.138;-68.936;2023-09-30T03:42:41;7.70;;;3.20;;
82618;SDS011;72286;12.138;-68.936;2023-09-30T03:46:21;6.90;;;3.40;;
82618;SDS011;72286;12.138;-68.936;2023-09-30T03:49:58;9.50;;;3.70;;
82618;SDS011;72286;12.138;-68.936;2023-09-30T03:53:37;9.80;;;3.40;;
82618;SDS011;72286;12.138;-68.936;2023-09-30T03:57:13;7.60;;;3.40;;
82618;SDS011;72286;12.138;-68.936;2023-09-30T04:00:53;6.20;;;3.40;;
82618;SDS011;72286;12.138;-68.936;2023-09-30T04:04:30;6.30;;;2.90;;
82618;SDS011;72286;12.138;-68.936;2023-09-30T04:08:08;9.00;;;3.40;;
82618;SDS011;72286;12.138;-68.936;2023-09-30T04:11:47;6.00;;;3.20;;
82618;SDS011;72286;12.138;-68.936;2023-09-30T04:15:25;8.00;;;3.40;;
82618;SDS011;72286;12.138;-68.936;2023-09-30T04:19:03;6.50;;;2.90;;
82618;SDS011;72286;12.138;-68.936;2023-09-30T04:22:41;4.60;;;2.90;;
82618;SDS011;72286;12.138;-68.936;2023-09-30T04:26:24;7.00;;;3.10;;
82618;SDS011;72286;12.138;-68.936;2023-09-30T04:30:03;5.10;;;2.70;;
82618;SDS011;72286;12.138;-68.936;2023-09-30T04:33:45;7.50;;;3.50;;
82618;SDS011;72286;12.138;-68.936;2023-09-30T04:37:23;9.30;;;3.00;;
82618;SDS011;72286;12.138;-68.936;2023-09-30T04:41:00;5.00;;;2.50;;
82618;SDS011;72286;12.138;-68.936;2023-09-30T04:44:38;7.40;;;2.90;;
82618;SDS011;72286;12.138;-68.936;2023-09-30T04:48:17;8.80;;;2.90;;
82618;SDS011;72286;12.138;-68.936;2023-09-30T04:51:56;6.50;;;2.90;;
82618;SDS011;72286;12.138;-68.936;2023-09-30T04:55:32;10.90;;;3.40;;
82618;SDS011;72286;12.138;-68.936;2023-09-30T04:59:11;6.00;;;3.30;;
82618;SDS011;72286;12.138;-68.936;2023-09-30T05:02:48;7.40;;;2.90;;
82618;SDS011;72286;12.138;-68.936;2023-09-30T05:06:27;7.60;;;2.70;;
82618;SDS011;72286;12.138;-68.936;2023-09-30T05:10:04;7.10;;;2.50;;
82618;SDS011;72286;12.138;-68.936;2023-09-30T05:13:47;8.10;;;2.60;;
82618;SDS011;72286;12.138;-68.936;2023-09-30T05:17:21;4.60;;;2.50;;
82618;SDS011;72286;12.138;-68.936;2023-09-30T05:20:59;8.80;;;2.70;;
82618;SDS011;72286;12.138;-68.936;2023-09-30T05:24:36;6.00;;;2.50;;
82618;SDS011;72286;12.138;-68.936;2023-09-30T05:28:15;6.30;;;2.40;;
82618;SDS011;72286;12.138;-68.936;2023-09-30T05:31:52;9.70;;;2.50;;
82618;SDS011;72286;12.138;-68.936;2023-09-30T05:35:30;7.70;;;2.50;;
82618;SDS011;72286;12.138;-68.936;2023-09-30T05:39:08;5.50;;;2.50;;
82618;SDS011;72286;12.138;-68.936;2023-09-30T05:42:47;5.30;;;2.00;;
82618;SDS011;72286;12.138;-68.936;2023-09-30T05:46:25;5.90;;;2.40;;
82618;SDS011;72286;12.138;-68.936;2023-09-30T05:50:23;5.40;;;2.40;;
82618;SDS011;72286;12.138;-68.936;2023-09-30T05:53:41;5.30;;;2.10;;
82618;SDS011;72286;12.138;-68.936;2023-09-30T05:57:19;4.70;;;2.10;;
82618;SDS011;72286;12.138;-68.936;2023-09-30T06:00:56;4.90;;;2.20;;
82618;SDS011;72286;12.138;-68.936;2023-09-30T06:04:34;9.60;;;2.10;;
82618;SDS011;72286;12.138;-68.936;2023-09-30T06:08:11;6.20;;;2.40;;
82618;SDS011;72286;12.138;-68.936;2023-09-30T06:11:52;6.20;;;2.30;;
82618;SDS011;72286;12.138;-68.936;2023-09-30T06:15:29;5.80;;;1.80;;
82618;SDS011;72286;12.138;-68.936;2023-09-30T06:19:08;7.80;;;2.20;;
82618;SDS011;72286;12.138;-68.936;2023-09-30T06:22:45;6.60;;;2.20;;
82618;SDS011;72286;12.138;-68.936;2023-09-30T06:26:23;6.40;;;2.40;;
82618;SDS011;72286;12.138;-68.936;2023-09-30T06:30:05;9.30;;;2.30;;
82618;SDS011;72286;12.138;-68.936;2023-09-30T06:33:43;7.00;;;2.30;;
82618;SDS011;72286;12.138;-68.936;2023-09-30T06:37:21;6.20;;;2.60;;
82618;SDS011;72286;12.138;-68.936;2023-09-30T06:41:00;6.70;;;2.20;;
82618;SDS011;72286;12.138;-68.936;2023-09-30T06:44:37;7.10;;;2.30;;
82618;SDS011;72286;12.138;-68.936;2023-09-30T06:48:16;7.40;;;2.20;;
82618;SDS011;72286;12.138;-68.936;2023-09-30T06:51:53;10.20;;;2.20;;
82618;SDS011;72286;12.138;-68.936;2023-09-30T06:55:31;7.30;;;2.10;;
82618;SDS011;72286;12.138;-68.936;2023-09-30T06:59:08;6.60;;;2.10;;
82618;SDS011;72286;12.138;-68.936;2023-09-30T07:02:47;5.10;;;2.30;;
82618;SDS011;72286;12.138;-68.936;2023-09-30T07:06:24;6.10;;;2.20;;
82618;SDS011;72286;12.138;-68.936;2023-09-30T07:10:05;4.50;;;2.20;;
82618;SDS011;72286;12.138;-68.936;2023-09-30T07:13:42;6.00;;;2.10;;
82618;SDS011;72286;12.138;-68.936;2023-09-30T07:17:20;6.30;;;2.30;;
82618;SDS011;72286;12.138;-68.936;2023-09-30T07:20:57;4.70;;;2.00;;
82618;SDS011;72286;12.138;-68.936;2023-09-30T07:24:36;7.20;;;2.20;;
82618;SDS011;72286;12.138;-68.936;2023-09-30T07:28:15;4.80;;;1.70;;
82618;SDS011;72286;12.138;-68.936;2023-09-30T07:31:53;6.90;;;2.50;;
82618;SDS011;72286;12.138;-68.936;2023-09-30T07:35:50;8.80;;;3.00;;
82618;SDS011;72286;12.138;-68.936;2023-09-30T07:39:08;5.50;;;2.30;;
82618;SDS011;72286;12.138;-68.936;2023-09-30T07:42:46;8.70;;;2.20;;
82618;SDS011;72286;12.138;-68.936;2023-09-30T07:46:24;6.00;;;2.50;;
82618;SDS011;72286;12.138;-68.936;2023-09-30T07:50:01;6.90;;;2.50;;
82618;SDS011;72286;12.138;-68.936;2023-09-30T07:53:46;8.00;;;2.30;;
82618;SDS011;72286;12.138;-68.936;2023-09-30T07:57:23;7.10;;;2.30;;
82618;SDS011;72286;12.138;-68.936;2023-09-30T08:01:01;6.00;;;2.90;;
82618;SDS011;72286;12.138;-68.936;2023-09-30T08:04:38;7.50;;;3.10;;
82618;SDS011;72286;12.138;-68.936;2023-09-30T08:08:16;4.40;;;2.30;;
82618;SDS011;72286;12.138;-68.936;2023-09-30T08:11:53;6.60;;;2.80;;
82618;SDS011;72286;12.138;-68.936;2023-09-30T08:15:32;9.80;;;2.40;;
82618;SDS011;72286;12.138;-68.936;2023-09-30T08:19:09;6.30;;;2.40;;
82618;SDS011;72286;12.138;-68.936;2023-09-30T08:22:47;8.30;;;2.60;;
82618;SDS011;72286;12.138;-68.936;2023-09-30T08:26:24;8.80;;;2.70;;
82618;SDS011;72286;12.138;-68.936;2023-09-30T08:30:03;7.00;;;2.70;;
82618;SDS011;72286;12.138;-68.936;2023-09-30T08:33:41;5.40;;;2.70;;
82618;SDS011;72286;12.138;-68.936;2023-09-30T08:37:20;6.50;;;2.40;;
82618;SDS011;72286;12.138;-68.936;2023-09-30T08:40:57;5.90;;;2.70;;
82618;SDS011;72286;12.138;-68.936;2023-09-30T08:44:37;5.90;;;2.50;;
82618;SDS011;72286;12.138;-68.936;2023-09-30T08:48:17;5.70;;;2.80;;
82618;SDS011;72286;12.138;-68.936;2023-09-30T08:51:56;8.50;;;3.00;;
82618;SDS011;72286;12.138;-68.936;2023-09-30T08:55:35;7.60;;;2.90;;
82618;SDS011;72286;12.138;-68.936;2023-09-30T08:59:14;10.30;;;3.50;;
82618;SDS011;72286;12.138;-68.936;2023-09-30T09:02:52;6.30;;;2.80;;
82618;SDS011;72286;12.138;-68.936;2023-09-30T09:06:30;8.90;;;2.80;;
82618;SDS011;72286;12.138;-68.936;2023-09-30T09:10:07;6.30;;;3.30;;
82618;SDS011;72286;12.138;-68.936;2023-09-30T09:13:50;6.60;;;2.80;;
82618;SDS011;72286;12.138;-68.936;2023-09-30T09:17:41;7.40;;;2.70;;
82618;SDS011;72286;12.138;-68.936;2023-09-30T09:21:21;7.80;;;2.90;;
82618;SDS011;72286;12.138;-68.936;2023-09-30T09:24:59;6.80;;;2.70;;
82618;SDS011;72286;12.138;-68.936;2023-09-30T09:28:38;6.10;;;2.90;;
82618;SDS011;72286;12.138;-68.936;2023-09-30T09:32:16;5.20;;;2.50;;
82618;SDS011;72286;12.138;-68.936;2023-09-30T09:35:54;5.80;;;3.00;;
82618;SDS011;72286;12.138;-68.936;2023-09-30T09:39:30;6.70;;;2.70;;
82618;SDS011;72286;12.138;-68.936;2023-09-30T09:43:09;8.70;;;3.20;;
82618;SDS011;72286;12.138;-68.936;2023-09-30T09:46:47;6.90;;;2.90;;
82618;SDS011;72286;12.138;-68.936;2023-09-30T09:50:29;8.40;;;3.10;;
82618;SDS011;72286;12.138;-68.936;2023-09-30T09:54:07;8.50;;;3.40;;
82618;SDS011;72286;12.138;-68.936;2023-09-30T09:57:46;8.40;;;2.90;;
82618;SDS011;72286;12.138;-68.936;2023-09-30T10:01:23;6.80;;;2.90;;
82618;SDS011;72286;12.138;-68.936;2023-09-30T10:05:03;6.50;;;3.00;;
82618;SDS011;72286;12.138;-68.936;2023-09-30T10:08:42;10.00;;;3.00;;
82618;SDS011;72286;12.138;-68.936;2023-09-30T10:12:22;7.00;;;2.70;;
82618;SDS011;72286;12.138;-68.936;2023-09-30T10:15:59;7.40;;;3.00;;
82618;SDS011;72286;12.138;-68.936;2023-09-30T10:20:02;8.10;;;2.80;;
82618;SDS011;72286;12.138;-68.936;2023-09-30T10:23:42;8.00;;;3.20;;
82618;SDS011;72286;12.138;-68.936;2023-09-30T10:27:40;7.50;;;3.40;;
82618;SDS011;72286;12.138;-68.936;2023-09-30T10:34:36;9.70;;;3.60;;
82618;SDS011;72286;12.138;-68.936;2023-09-30T10:42:04;7.90;;;2.90;;
82618;SDS011;72286;12.138;-68.936;2023-09-30T10:53:04;10.50;;;3.10;;
82618;SDS011;72286;12.138;-68.936;2023-09-30T10:56:44;7.80;;;2.70;;
82618;SDS011;72286;12.138;-68.936;2023-09-30T11:00:21;7.20;;;3.30;;
82618;SDS011;72286;12.138;-68.936;2023-09-30T11:03:59;8.30;;;3.10;;
82618;SDS011;72286;12.138;-68.936;2023-09-30T11:07:40;8.40;;;2.50;;
82618;SDS011;72286;12.138;-68.936;2023-09-30T11:11:31;7.40;;;3.10;;
82618;SDS011;72286;12.138;-68.936;2023-09-30T11:15:15;7.00;;;3.10;;
82618;SDS011;72286;12.138;-68.936;2023-09-30T11:18:54;9.90;;;3.10;;
82618;SDS011;72286;12.138;-68.936;2023-09-30T11:22:31;8.00;;;2.90;;
82618;SDS011;72286;12.138;-68.936;2023-09-30T11:26:10;6.60;;;2.90;;
82618;SDS011;72286;12.138;-68.936;2023-09-30T11:29:49;7.70;;;3.10;;
82618;SDS011;72286;12.138;-68.936;2023-09-30T11:33:28;7.00;;;3.10;;
82618;SDS011;72286;12.138;-68.936;2023-09-30T11:37:06;5.80;;;3.10;;
82618;SDS011;72286;12.138;-68.936;2023-09-30T11:40:57;9.40;;;3.60;;
82618;SDS011;72286;12.138;-68.936;2023-09-30T11:44:45;7.90;;;3.00;;
82618;SDS011;72286;12.138;-68.936;2023-09-30T11:48:24;5.00;;;2.60;;
82618;SDS011;72286;12.138;-68.936;2023-09-30T11:52:03;5.80;;;3.00;;
82618;SDS011;72286;12.138;-68.936;2023-09-30T11:56:04;8.30;;;3.60;;
82618;SDS011;72286;12.138;-68.936;2023-09-30T11:59:22;7.20;;;3.00;;
82618;SDS011;72286;12.138;-68.936;2023-09-30T12:03:00;7.40;;;2.90;;
82618;SDS011;72286;12.138;-68.936;2023-09-30T12:06:38;10.30;;;3.40;;
82618;SDS011;72286;12.138;-68.936;2023-09-30T12:10:16;6.90;;;3.00;;
82618;SDS011;72286;12.138;-68.936;2023-09-30T12:13:53;6.90;;;3.40;;
82618;SDS011;72286;12.138;-68.936;2023-09-30T12:17:32;7.00;;;3.60;;
82618;SDS011;72286;12.138;-68.936;2023-09-30T12:21:09;10.90;;;3.20;;
82618;SDS011;72286;12.138;-68.936;2023-09-30T12:24:50;4.20;;;3.20;;
82618;SDS011;72286;12.138;-68.936;2023-09-30T12:28:28;6.30;;;3.30;;
82618;SDS011;72286;12.138;-68.936;2023-09-30T12:32:08;8.50;;;4.60;;
82618;SDS011;72286;12.138;-68.936;2023-09-30T12:35:45;7.60;;;3.70;;
82618;SDS011;72286;12.138;-68.936;2023-09-30T12:39:23;8.60;;;3.70;;
82618;SDS011;72286;12.138;-68.936;2023-09-30T12:43:01;6.60;;;3.70;;
82618;SDS011;72286;12.138;-68.936;2023-09-30T12:47:05;7.10;;;3.40;;
82618;SDS011;72286;12.138;-68.936;2023-09-30T12:50:17;7.90;;;3.30;;
82618;SDS011;72286;12.138;-68.936;2023-09-30T12:53:55;10.00;;;3.60;;
82618;SDS011;72286;12.138;-68.936;2023-09-30T12:57:33;7.00;;;3.70;;
82618;SDS011;72286;12.138;-68.936;2023-09-30T13:01:12;6.70;;;3.80;;
82618;SDS011;72286;12.138;-68.936;2023-09-30T13:05:09;6.70;;;3.50;;
82618;SDS011;72286;12.138;-68.936;2023-09-30T13:08:28;7.10;;;3.60;;
82618;SDS011;72286;12.138;-68.936;2023-09-30T13:12:10;9.50;;;4.30;;
82618;SDS011;72286;12.138;-68.936;2023-09-30T13:15:47;5.70;;;3.60;;
82618;SDS011;72286;12.138;-68.936;2023-09-30T13:19:25;9.60;;;4.40;;
82618;SDS011;72286;12.138;-68.936;2023-09-30T13:23:03;6.30;;;3.60;;
82618;SDS011;72286;12.138;-68.936;2023-09-30T13:26:40;10.10;;;4.00;;
82618;SDS011;72286;12.138;-68.936;2023-09-30T13:30:18;7.50;;;3.10;;
82618;SDS011;72286;12.138;-68.936;2023-09-30T13:33:55;8.00;;;4.30;;
82618;SDS011;72286;12.138;-68.936;2023-09-30T13:37:34;8.60;;;4.60;;
82618;SDS011;72286;12.138;-68.936;2023-09-30T13:41:12;12.70;;;5.60;;
82618;SDS011;72286;12.138;-68.936;2023-09-30T13:44:51;7.10;;;3.80;;
82618;SDS011;72286;12.138;-68.936;2023-09-30T13:48:28;8.70;;;6.60;;
82618;SDS011;72286;12.138;-68.936;2023-09-30T13:52:06;6.90;;;3.70;;
82618;SDS011;72286;12.138;-68.936;2023-09-30T13:55:44;10.60;;;7.40;;
82618;SDS011;72286;12.138;-68.936;2023-09-30T13:59:22;9.00;;;4.80;;
82618;SDS011;72286;12.138;-68.936;2023-09-30T14:02:59;8.80;;;6.60;;
82618;SDS011;72286;12.138;-68.936;2023-09-30T14:06:38;11.50;;;6.50;;
82618;SDS011;72286;12.138;-68.936;2023-09-30T14:10:16;14.60;;;9.10;;
82618;SDS011;72286;12.138;-68.936;2023-09-30T14:14:15;7.70;;;5.50;;
82618;SDS011;72286;12.138;-68.936;2023-09-30T14:17:32;8.60;;;4.80;;
82618;SDS011;72286;12.138;-68.936;2023-09-30T14:21:11;9.60;;;5.20;;
82618;SDS011;72286;12.138;-68.936;2023-09-30T14:24:48;11.90;;;8.20;;
82618;SDS011;72286;12.138;-68.936;2023-09-30T14:28:26;8.00;;;4.60;;
82618;SDS011;72286;12.138;-68.936;2023-09-30T14:32:03;12.00;;;6.40;;
82618;SDS011;72286;12.138;-68.936;2023-09-30T14:35:45;8.90;;;5.80;;
82618;SDS011;72286;12.138;-68.936;2023-09-30T14:39:41;16.30;;;8.10;;
82618;SDS011;72286;12.138;-68.936;2023-09-30T14:43:00;17.20;;;8.10;;
82618;SDS011;72286;12.138;-68.936;2023-09-30T14:46:41;12.20;;;5.90;;
82618;SDS011;72286;12.138;-68.936;2023-09-30T14:50:19;8.80;;;4.80;;
82618;SDS011;72286;12.138;-68.936;2023-09-30T14:53:56;7.80;;;4.30;;
82618;SDS011;72286;12.138;-68.936;2023-09-30T14:57:35;12.30;;;5.70;;
82618;SDS011;72286;12.138;-68.936;2023-09-30T15:01:12;8.70;;;4.10;;
82618;SDS011;72286;12.138;-68.936;2023-09-30T15:04:50;8.70;;;4.50;;
82618;SDS011;72286;12.138;-68.936;2023-09-30T15:08:27;16.80;;;7.10;;
82618;SDS011;72286;12.138;-68.936;2023-09-30T15:12:05;9.60;;;6.00;;
82618;SDS011;72286;12.138;-68.936;2023-09-30T15:15:42;26.30;;;9.10;;
82618;SDS011;72286;12.138;-68.936;2023-09-30T15:19:21;10.80;;;5.60;;
82618;SDS011;72286;12.138;-68.936;2023-09-30T15:22:58;15.70;;;5.20;;
82618;SDS011;72286;12.138;-68.936;2023-09-30T15:26:36;18.20;;;7.90;;
82618;SDS011;72286;12.138;-68.936;2023-09-30T15:30:13;8.30;;;4.60;;
82618;SDS011;72286;12.138;-68.936;2023-09-30T15:33:52;12.90;;;7.00;;
82618;SDS011;72286;12.138;-68.936;2023-09-30T15:37:29;9.10;;;5.30;;
82618;SDS011;72286;12.138;-68.936;2023-09-30T15:41:07;13.20;;;5.50;;
82618;SDS011;72286;12.138;-68.936;2023-09-30T15:44:44;7.90;;;5.00;;
82618;SDS011;72286;12.138;-68.936;2023-09-30T15:48:23;7.00;;;4.30;;
82618;SDS011;72286;12.138;-68.936;2023-09-30T15:52:03;6.80;;;3.90;;
82618;SDS011;72286;12.138;-68.936;2023-09-30T15:55:41;12.70;;;5.50;;
82618;SDS011;72286;12.138;-68.936;2023-09-30T15:59:18;6.30;;;4.30;;
82618;SDS011;72286;12.138;-68.936;2023-09-30T16:02:57;8.70;;;4.30;;
82618;SDS011;72286;12.138;-68.936;2023-09-30T16:06:34;8.70;;;4.60;;
82618;SDS011;72286;12.138;-68.936;2023-09-30T16:10:12;8.20;;;4.60;;
82618;SDS011;72286;12.138;-68.936;2023-09-30T16:13:51;8.20;;;4.90;;
82618;SDS011;72286;12.138;-68.936;2023-09-30T16:17:29;8.60;;;3.70;;
82618;SDS011;72286;12.138;-68.936;2023-09-30T16:21:27;9.70;;;4.40;;
82618;SDS011;72286;12.138;-68.936;2023-09-30T16:24:45;6.40;;;3.60;;
82618;SDS011;72286;12.138;-68.936;2023-09-30T16:28:23;8.10;;;4.10;;
82618;SDS011;72286;12.138;-68.936;2023-09-30T16:32:01;9.80;;;4.60;;
82618;SDS011;72286;12.138;-68.936;2023-09-30T16:35:38;8.50;;;4.20;;
82618;SDS011;72286;12.138;-68.936;2023-09-30T16:39:16;5.30;;;3.20;;
82618;SDS011;72286;12.138;-68.936;2023-09-30T16:43:13;12.90;;;4.60;;
82618;SDS011;72286;12.138;-68.936;2023-09-30T16:46:32;5.50;;;2.90;;
82618;SDS011;72286;12.138;-68.936;2023-09-30T16:50:09;5.90;;;3.00;;
82618;SDS011;72286;12.138;-68.936;2023-09-30T16:53:47;7.10;;;3.00;;
82618;SDS011;72286;12.138;-68.936;2023-09-30T16:57:24;7.60;;;2.70;;
82618;SDS011;72286;12.138;-68.936;2023-09-30T17:01:08;10.90;;;5.00;;
82618;SDS011;72286;12.138;-68.936;2023-09-30T17:04:46;6.20;;;3.00;;
82618;SDS011;72286;12.138;-68.936;2023-09-30T17:08:24;7.00;;;2.60;;
82618;SDS011;72286;12.138;-68.936;2023-09-30T17:12:01;8.00;;;3.40;;
82618;SDS011;72286;12.138;-68.936;2023-09-30T17:15:59;7.00;;;3.20;;
82618;SDS011;72286;12.138;-68.936;2023-09-30T17:19:16;7.30;;;2.50;;
82618;SDS011;72286;12.138;-68.936;2023-09-30T17:22:55;4.30;;;2.70;;
82618;SDS011;72286;12.138;-68.936;2023-09-30T17:26:32;6.60;;;2.80;;
82618;SDS011;72286;12.138;-68.936;2023-09-30T17:30:11;8.50;;;3.40;;
82618;SDS011;72286;12.138;-68.936;2023-09-30T17:33:48;4.90;;;3.00;;
82618;SDS011;72286;12.138;-68.936;2023-09-30T17:37:27;6.20;;;2.50;;
82618;SDS011;72286;12.138;-68.936;2023-09-30T17:41:05;5.10;;;2.30;;
82618;SDS011;72286;12.138;-68.936;2023-09-30T17:44:44;4.80;;;2.60;;
82618;SDS011;72286;12.138;-68.936;2023-09-30T17:48:21;8.20;;;3.10;;
82618;SDS011;72286;12.138;-68.936;2023-09-30T17:52:01;4.80;;;2.50;;
82618;SDS011;72286;12.138;-68.936;2023-09-30T17:55:38;3.90;;;2.60;;
82618;SDS011;72286;12.138;-68.936;2023-09-30T17:59:16;5.70;;;2.60;;
82618;SDS011;72286;12.138;-68.936;2023-09-30T18:02:53;5.70;;;2.30;;
82618;SDS011;72286;12.138;-68.936;2023-09-30T18:06:32;4.80;;;2.30;;
82618;SDS011;72286;12.138;-68.936;2023-09-30T18:10:09;7.30;;;2.50;;
82618;SDS011;72286;12.138;-68.936;2023-09-30T18:14:01;7.70;;;2.90;;
82618;SDS011;72286;12.138;-68.936;2023-09-30T18:17:24;8.00;;;2.80;;
82618;SDS011;72286;12.138;-68.936;2023-09-30T18:21:03;4.60;;;2.10;;
82618;SDS011;72286;12.138;-68.936;2023-09-30T18:24:41;6.70;;;2.90;;
82618;SDS011;72286;12.138;-68.936;2023-09-30T18:28:18;3.70;;;2.00;;
82618;SDS011;72286;12.138;-68.936;2023-09-30T18:31:56;6.40;;;2.70;;
82618;SDS011;72286;12.138;-68.936;2023-09-30T18:35:37;6.00;;;2.30;;
82618;SDS011;72286;12.138;-68.936;2023-09-30T18:39:15;6.80;;;2.10;;
82618;SDS011;72286;12.138;-68.936;2023-09-30T18:42:53;8.10;;;2.80;;
82618;SDS011;72286;12.138;-68.936;2023-09-30T18:46:30;5.60;;;2.40;;
82618;SDS011;72286;12.138;-68.936;2023-09-30T18:50:08;6.60;;;2.60;;
82618;SDS011;72286;12.138;-68.936;2023-09-30T18:53:46;7.00;;;2.60;;
82618;SDS011;72286;12.138;-68.936;2023-09-30T18:57:24;5.00;;;2.20;;
82618;SDS011;72286;12.138;-68.936;2023-09-30T19:01:02;4.70;;;2.00;;
82618;SDS011;72286;12.138;-68.936;2023-09-30T19:04:40;4.20;;;2.40;;
82618;SDS011;72286;12.138;-68.936;2023-09-30T19:08:18;7.90;;;2.80;;
82618;SDS011;72286;12.138;-68.936;2023-09-30T19:11:55;8.20;;;2.40;;
82618;SDS011;72286;12.138;-68.936;2023-09-30T19:15:34;5.70;;;2.00;;
82618;SDS011;72286;12.138;-68.936;2023-09-30T19:19:12;6.60;;;3.40;;
82618;SDS011;72286;12.138;-68.936;2023-09-30T19:22:50;6.70;;;2.60;;
82618;SDS011;72286;12.138;-68.936;2023-09-30T19:26:28;8.90;;;3.10;;
82618;SDS011;72286;12.138;-68.936;2023-09-30T19:30:05;4.50;;;2.30;;
82618;SDS011;72286;12.138;-68.936;2023-09-30T19:33:44;8.30;;;2.40;;
82618;SDS011;72286;12.138;-68.936;2023-09-30T19:37:22;5.60;;;2.30;;
82618;SDS011;72286;12.138;-68.936;2023-09-30T19:41:00;5.90;;;2.50;;
82618;SDS011;72286;12.138;-68.936;2023-09-30T19:44:37;6.10;;;2.30;;
82618;SDS011;72286;12.138;-68.936;2023-09-30T19:48:17;5.10;;;2.00;;
82618;SDS011;72286;12.138;-68.936;2023-09-30T19:51:54;6.20;;;2.60;;
82618;SDS011;72286;12.138;-68.936;2023-09-30T19:55:32;6.80;;;2.40;;
82618;SDS011;72286;12.138;-68.936;2023-09-30T19:59:10;4.90;;;2.40;;
82618;SDS011;72286;12.138;-68.936;2023-09-30T20:03:08;5.60;;;2.40;;
82618;SDS011;72286;12.138;-68.936;2023-09-30T20:06:25;7.20;;;2.50;;
82618;SDS011;72286;12.138;-68.936;2023-09-30T20:10:04;5.30;;;2.00;;
82618;SDS011;72286;12.138;-68.936;2023-09-30T20:13:42;6.30;;;2.20;;
82618;SDS011;72286;12.138;-68.936;2023-09-30T20:17:22;5.00;;;2.10;;
82618;SDS011;72286;12.138;-68.936;2023-09-30T20:20:59;5.30;;;2.40;;
82618;SDS011;72286;12.138;-68.936;2023-09-30T20:24:37;5.10;;;2.00;;
82618;SDS011;72286;12.138;-68.936;2023-09-30T20:28:15;5.30;;;2.20;;
82618;SDS011;72286;12.138;-68.936;2023-09-30T20:31:53;3.80;;;2.10;;
82618;SDS011;72286;12.138;-68.936;2023-09-30T20:35:30;5.20;;;1.60;;
82618;SDS011;72286;12.138;-68.936;2023-09-30T20:39:11;3.90;;;1.40;;
82618;SDS011;72286;12.138;-68.936;2023-09-30T20:42:49;4.40;;;1.70;;
82618;SDS011;72286;12.138;-68.936;2023-09-30T20:46:27;2.60;;;1.70;;
82618;SDS011;72286;12.138;-68.936;2023-09-30T20:50:05;4.10;;;1.90;;
82618;SDS011;72286;12.138;-68.936;2023-09-30T20:53:42;3.70;;;1.80;;
82618;SDS011;72286;12.138;-68.936;2023-09-30T20:57:23;4.30;;;1.50;;
82618;SDS011;72286;12.138;-68.936;2023-09-30T21:01:09;5.90;;;1.90;;
82618;SDS011;72286;12.138;-68.936;2023-09-30T21:04:48;4.10;;;1.40;;
82618;SDS011;72286;12.138;-68.936;2023-09-30T21:08:26;6.80;;;1.70;;
82618;SDS011;72286;12.138;-68.936;2023-09-30T21:12:04;5.30;;;1.30;;
82618;SDS011;72286;12.138;-68.936;2023-09-30T21:15:41;4.30;;;1.80;;
82618;SDS011;72286;12.138;-68.936;2023-09-30T21:19:19;4.00;;;1.90;;
82618;SDS011;72286;12.138;-68.936;2023-09-30T21:22:58;3.30;;;1.50;;
82618;SDS011;72286;12.138;-68.936;2023-09-30T21:26:35;4.60;;;1.50;;
82618;SDS011;72286;12.138;-68.936;2023-09-30T21:30:13;5.20;;;1.50;;